sensor_id;sensor_type;location;lat;lon;timestamp;P1;durP1;ratioP1;P2;durP2;ratioP2
19679;SDS011;9989;48.962;9.182;2022-07-29T00:01:19;10.67;;;7.10;;
19679;SDS011;9989;48.962;9.182;2022-07-29T00:03:45;10.70;;;7.23;;
19679;SDS011;9989;48.962;9.182;2022-07-29T00:06:10;10.47;;;7.03;;
19679;SDS011;9989;48.962;9.182;2022-07-29T00:08:36;11.83;;;7.30;;
19679;SDS011;9989;48.962;9.182;2022-07-29T00:11:02;17.80;;;7.60;;
19679;SDS011;9989;48.962;9.182;2022-07-29T00:13:27;13.87;;;7.20;;
19679;SDS011;9989;48.962;9.182;2022-07-29T00:15:53;10.90;;;6.67;;
19679;SDS011;9989;48.962;9.182;2022-07-29T00:18:18;9.70;;;6.80;;
19679;SDS011;9989;48.962;9.182;2022-07-29T00:20:45;10.83;;;7.23;;
19679;SDS011;9989;48.962;9.182;2022-07-29T00:23:10;10.10;;;6.60;;
19679;SDS011;9989;48.962;9.182;2022-07-29T00:25:36;10.50;;;7.13;;
19679;SDS011;9989;48.962;9.182;2022-07-29T00:28:01;10.73;;;6.73;;
19679;SDS011;9989;48.962;9.182;2022-07-29T00:30:27;11.90;;;7.37;;
19679;SDS011;9989;48.962;9.182;2022-07-29T00:32:53;10.83;;;7.00;;
19679;SDS011;9989;48.962;9.182;2022-07-29T00:35:18;12.43;;;7.70;;
19679;SDS011;9989;48.962;9.182;2022-07-29T00:38:02;10.50;;;7.27;;
19679;SDS011;9989;48.962;9.182;2022-07-29T00:40:28;10.73;;;7.73;;
19679;SDS011;9989;48.962;9.182;2022-07-29T00:42:53;10.13;;;7.07;;
19679;SDS011;9989;48.962;9.182;2022-07-29T00:45:19;10.93;;;7.17;;
19679;SDS011;9989;48.962;9.182;2022-07-29T00:47:45;10.17;;;6.73;;
19679;SDS011;9989;48.962;9.182;2022-07-29T00:50:11;10.30;;;7.20;;
19679;SDS011;9989;48.962;9.182;2022-07-29T00:52:38;11.87;;;7.93;;
19679;SDS011;9989;48.962;9.182;2022-07-29T00:55:05;11.43;;;7.53;;
19679;SDS011;9989;48.962;9.182;2022-07-29T00:57:34;12.30;;;6.83;;
19679;SDS011;9989;48.962;9.182;2022-07-29T01:00:00;12.63;;;7.17;;
19679;SDS011;9989;48.962;9.182;2022-07-29T01:02:28;11.80;;;7.07;;
19679;SDS011;9989;48.962;9.182;2022-07-29T01:04:53;10.37;;;6.97;;
19679;SDS011;9989;48.962;9.182;2022-07-29T01:07:20;10.90;;;7.17;;
19679;SDS011;9989;48.962;9.182;2022-07-29T01:09:45;12.13;;;7.30;;
19679;SDS011;9989;48.962;9.182;2022-07-29T01:12:15;12.30;;;7.63;;
19679;SDS011;9989;48.962;9.182;2022-07-29T01:14:44;9.90;;;6.60;;
19679;SDS011;9989;48.962;9.182;2022-07-29T01:17:12;9.87;;;7.13;;
19679;SDS011;9989;48.962;9.182;2022-07-29T01:30:09;11.73;;;7.77;;
19679;SDS011;9989;48.962;9.182;2022-07-29T01:32:36;9.60;;;6.83;;
19679;SDS011;9989;48.962;9.182;2022-07-29T01:35:21;11.13;;;7.07;;
19679;SDS011;9989;48.962;9.182;2022-07-29T01:37:52;10.27;;;7.33;;
19679;SDS011;9989;48.962;9.182;2022-07-29T01:43:10;10.97;;;7.43;;
19679;SDS011;9989;48.962;9.182;2022-07-29T01:45:40;11.00;;;6.97;;
19679;SDS011;9989;48.962;9.182;2022-07-29T01:48:12;11.33;;;7.10;;
19679;SDS011;9989;48.962;9.182;2022-07-29T01:50:57;10.30;;;7.27;;
19679;SDS011;9989;48.962;9.182;2022-07-29T01:53:59;10.40;;;6.57;;
19679;SDS011;9989;48.962;9.182;2022-07-29T01:56:27;13.33;;;6.90;;
19679;SDS011;9989;48.962;9.182;2022-07-29T01:58:57;12.47;;;7.40;;
19679;SDS011;9989;48.962;9.182;2022-07-29T02:01:24;10.63;;;7.60;;
19679;SDS011;9989;48.962;9.182;2022-07-29T02:03:51;10.70;;;7.37;;
19679;SDS011;9989;48.962;9.182;2022-07-29T02:06:20;11.87;;;6.73;;
19679;SDS011;9989;48.962;9.182;2022-07-29T02:08:47;10.73;;;6.60;;
19679;SDS011;9989;48.962;9.182;2022-07-29T02:11:14;11.30;;;7.20;;
19679;SDS011;9989;48.962;9.182;2022-07-29T02:13:40;10.10;;;6.63;;
19679;SDS011;9989;48.962;9.182;2022-07-29T02:16:07;10.83;;;6.80;;
19679;SDS011;9989;48.962;9.182;2022-07-29T02:18:34;11.43;;;6.63;;
19679;SDS011;9989;48.962;9.182;2022-07-29T02:21:02;10.43;;;6.67;;
19679;SDS011;9989;48.962;9.182;2022-07-29T02:23:29;11.07;;;6.87;;
19679;SDS011;9989;48.962;9.182;2022-07-29T02:25:56;11.70;;;7.50;;
19679;SDS011;9989;48.962;9.182;2022-07-29T02:28:24;13.47;;;7.53;;
19679;SDS011;9989;48.962;9.182;2022-07-29T02:30:55;11.80;;;8.23;;
19679;SDS011;9989;48.962;9.182;2022-07-29T02:33:24;11.30;;;7.43;;
19679;SDS011;9989;48.962;9.182;2022-07-29T02:35:50;12.60;;;7.50;;
19679;SDS011;9989;48.962;9.182;2022-07-29T02:38:18;12.57;;;7.23;;
19679;SDS011;9989;48.962;9.182;2022-07-29T02:41:05;11.73;;;7.63;;
19679;SDS011;9989;48.962;9.182;2022-07-29T02:43:36;17.30;;;7.60;;
19679;SDS011;9989;48.962;9.182;2022-07-29T02:46:03;12.67;;;7.67;;
19679;SDS011;9989;48.962;9.182;2022-07-29T02:48:33;11.20;;;7.77;;
19679;SDS011;9989;48.962;9.182;2022-07-29T02:51:04;12.53;;;7.90;;
19679;SDS011;9989;48.962;9.182;2022-07-29T02:53:38;11.13;;;7.77;;
19679;SDS011;9989;48.962;9.182;2022-07-29T02:56:06;11.87;;;7.97;;
19679;SDS011;9989;48.962;9.182;2022-07-29T02:58:39;10.30;;;7.53;;
19679;SDS011;9989;48.962;9.182;2022-07-29T03:01:16;10.67;;;6.97;;
19679;SDS011;9989;48.962;9.182;2022-07-29T03:03:46;14.23;;;8.63;;
19679;SDS011;9989;48.962;9.182;2022-07-29T03:06:14;9.83;;;7.07;;
19679;SDS011;9989;48.962;9.182;2022-07-29T03:08:42;9.73;;;7.30;;
19679;SDS011;9989;48.962;9.182;2022-07-29T03:11:08;11.53;;;7.10;;
19679;SDS011;9989;48.962;9.182;2022-07-29T03:13:35;11.43;;;7.43;;
19679;SDS011;9989;48.962;9.182;2022-07-29T03:16:01;12.60;;;7.90;;
19679;SDS011;9989;48.962;9.182;2022-07-29T03:18:28;10.30;;;6.73;;
19679;SDS011;9989;48.962;9.182;2022-07-29T03:20:55;10.50;;;6.77;;
19679;SDS011;9989;48.962;9.182;2022-07-29T03:23:21;10.93;;;7.47;;
19679;SDS011;9989;48.962;9.182;2022-07-29T03:25:51;11.20;;;7.50;;
19679;SDS011;9989;48.962;9.182;2022-07-29T03:28:18;11.33;;;7.77;;
19679;SDS011;9989;48.962;9.182;2022-07-29T03:30:44;10.33;;;7.87;;
19679;SDS011;9989;48.962;9.182;2022-07-29T03:33:10;11.23;;;7.00;;
19679;SDS011;9989;48.962;9.182;2022-07-29T03:35:36;11.57;;;7.40;;
19679;SDS011;9989;48.962;9.182;2022-07-29T03:38:02;13.20;;;7.30;;
19679;SDS011;9989;48.962;9.182;2022-07-29T03:40:31;11.93;;;7.00;;
19679;SDS011;9989;48.962;9.182;2022-07-29T03:43:05;11.80;;;7.00;;
19679;SDS011;9989;48.962;9.182;2022-07-29T03:45:33;12.97;;;7.27;;
19679;SDS011;9989;48.962;9.182;2022-07-29T03:48:01;11.00;;;7.10;;
19679;SDS011;9989;48.962;9.182;2022-07-29T03:50:32;10.77;;;7.33;;
19679;SDS011;9989;48.962;9.182;2022-07-29T03:52:59;10.77;;;7.60;;
19679;SDS011;9989;48.962;9.182;2022-07-29T03:55:26;12.10;;;8.40;;
19679;SDS011;9989;48.962;9.182;2022-07-29T03:57:52;10.20;;;6.80;;
19679;SDS011;9989;48.962;9.182;2022-07-29T04:00:20;11.00;;;7.33;;
19679;SDS011;9989;48.962;9.182;2022-07-29T04:02:47;10.50;;;7.50;;
19679;SDS011;9989;48.962;9.182;2022-07-29T04:05:13;14.30;;;8.17;;
19679;SDS011;9989;48.962;9.182;2022-07-29T04:07:43;12.53;;;7.87;;
19679;SDS011;9989;48.962;9.182;2022-07-29T04:10:10;12.17;;;8.33;;
19679;SDS011;9989;48.962;9.182;2022-07-29T04:12:35;13.20;;;7.73;;
19679;SDS011;9989;48.962;9.182;2022-07-29T04:15:02;14.73;;;8.20;;
19679;SDS011;9989;48.962;9.182;2022-07-29T04:17:29;11.80;;;8.23;;
19679;SDS011;9989;48.962;9.182;2022-07-29T04:19:54;12.27;;;7.50;;
19679;SDS011;9989;48.962;9.182;2022-07-29T04:22:20;12.47;;;8.17;;
19679;SDS011;9989;48.962;9.182;2022-07-29T04:24:45;12.30;;;8.17;;
19679;SDS011;9989;48.962;9.182;2022-07-29T04:27:11;11.47;;;8.03;;
19679;SDS011;9989;48.962;9.182;2022-07-29T04:29:37;11.33;;;7.30;;
19679;SDS011;9989;48.962;9.182;2022-07-29T04:32:02;13.90;;;8.30;;
19679;SDS011;9989;48.962;9.182;2022-07-29T04:34:28;13.03;;;8.17;;
19679;SDS011;9989;48.962;9.182;2022-07-29T04:36:54;13.93;;;8.33;;
19679;SDS011;9989;48.962;9.182;2022-07-29T04:39:20;14.53;;;8.43;;
19679;SDS011;9989;48.962;9.182;2022-07-29T04:41:45;10.57;;;7.30;;
19679;SDS011;9989;48.962;9.182;2022-07-29T04:44:12;10.30;;;7.20;;
19679;SDS011;9989;48.962;9.182;2022-07-29T04:46:37;12.17;;;8.00;;
19679;SDS011;9989;48.962;9.182;2022-07-29T04:49:03;11.53;;;7.83;;
19679;SDS011;9989;48.962;9.182;2022-07-29T04:51:29;11.70;;;8.33;;
19679;SDS011;9989;48.962;9.182;2022-07-29T04:53:55;12.17;;;7.57;;
19679;SDS011;9989;48.962;9.182;2022-07-29T04:56:20;13.10;;;7.83;;
19679;SDS011;9989;48.962;9.182;2022-07-29T04:58:46;12.80;;;8.13;;
19679;SDS011;9989;48.962;9.182;2022-07-29T05:01:12;13.57;;;8.40;;
19679;SDS011;9989;48.962;9.182;2022-07-29T05:03:39;11.50;;;8.57;;
19679;SDS011;9989;48.962;9.182;2022-07-29T05:06:05;12.80;;;8.27;;
19679;SDS011;9989;48.962;9.182;2022-07-29T05:08:30;11.33;;;8.30;;
19679;SDS011;9989;48.962;9.182;2022-07-29T05:10:56;14.03;;;8.27;;
19679;SDS011;9989;48.962;9.182;2022-07-29T05:13:21;13.63;;;8.20;;
19679;SDS011;9989;48.962;9.182;2022-07-29T05:15:47;11.57;;;8.10;;
19679;SDS011;9989;48.962;9.182;2022-07-29T05:18:13;13.23;;;8.10;;
19679;SDS011;9989;48.962;9.182;2022-07-29T05:20:39;12.77;;;8.33;;
19679;SDS011;9989;48.962;9.182;2022-07-29T05:23:04;15.20;;;8.43;;
19679;SDS011;9989;48.962;9.182;2022-07-29T05:25:30;13.23;;;8.37;;
19679;SDS011;9989;48.962;9.182;2022-07-29T05:27:56;13.67;;;8.83;;
19679;SDS011;9989;48.962;9.182;2022-07-29T05:30:22;11.80;;;8.07;;
19679;SDS011;9989;48.962;9.182;2022-07-29T05:32:48;15.20;;;8.23;;
19679;SDS011;9989;48.962;9.182;2022-07-29T05:35:14;12.00;;;8.97;;
19679;SDS011;9989;48.962;9.182;2022-07-29T05:37:40;12.37;;;7.70;;
19679;SDS011;9989;48.962;9.182;2022-07-29T05:40:06;13.50;;;8.40;;
19679;SDS011;9989;48.962;9.182;2022-07-29T05:42:32;12.50;;;8.73;;
19679;SDS011;9989;48.962;9.182;2022-07-29T05:45:01;10.80;;;7.30;;
19679;SDS011;9989;48.962;9.182;2022-07-29T05:47:27;12.00;;;8.27;;
19679;SDS011;9989;48.962;9.182;2022-07-29T05:49:53;13.43;;;8.83;;
19679;SDS011;9989;48.962;9.182;2022-07-29T05:52:19;10.97;;;7.60;;
19679;SDS011;9989;48.962;9.182;2022-07-29T05:54:45;12.03;;;7.93;;
19679;SDS011;9989;48.962;9.182;2022-07-29T05:57:20;11.13;;;7.70;;
19679;SDS011;9989;48.962;9.182;2022-07-29T05:59:47;15.07;;;8.17;;
19679;SDS011;9989;48.962;9.182;2022-07-29T06:02:13;10.80;;;7.83;;
19679;SDS011;9989;48.962;9.182;2022-07-29T06:04:39;12.30;;;8.87;;
19679;SDS011;9989;48.962;9.182;2022-07-29T06:07:05;12.57;;;7.73;;
19679;SDS011;9989;48.962;9.182;2022-07-29T06:09:31;15.07;;;8.07;;
19679;SDS011;9989;48.962;9.182;2022-07-29T06:11:57;11.10;;;7.63;;
19679;SDS011;9989;48.962;9.182;2022-07-29T06:14:23;12.67;;;8.43;;
19679;SDS011;9989;48.962;9.182;2022-07-29T06:16:49;12.50;;;7.67;;
19679;SDS011;9989;48.962;9.182;2022-07-29T06:19:14;14.23;;;8.27;;
19679;SDS011;9989;48.962;9.182;2022-07-29T06:21:43;14.40;;;8.23;;
19679;SDS011;9989;48.962;9.182;2022-07-29T06:24:11;13.33;;;7.67;;
19679;SDS011;9989;48.962;9.182;2022-07-29T06:26:38;10.80;;;7.53;;
19679;SDS011;9989;48.962;9.182;2022-07-29T06:29:04;12.90;;;8.07;;
19679;SDS011;9989;48.962;9.182;2022-07-29T06:31:30;16.70;;;8.07;;
19679;SDS011;9989;48.962;9.182;2022-07-29T06:33:55;13.87;;;8.10;;
19679;SDS011;9989;48.962;9.182;2022-07-29T06:36:21;10.33;;;6.37;;
19679;SDS011;9989;48.962;9.182;2022-07-29T06:38:46;12.93;;;7.87;;
19679;SDS011;9989;48.962;9.182;2022-07-29T06:41:12;13.07;;;6.73;;
19679;SDS011;9989;48.962;9.182;2022-07-29T06:43:40;10.50;;;6.80;;
19679;SDS011;9989;48.962;9.182;2022-07-29T06:46:11;13.83;;;7.67;;
19679;SDS011;9989;48.962;9.182;2022-07-29T06:48:38;11.07;;;7.40;;
19679;SDS011;9989;48.962;9.182;2022-07-29T06:51:05;12.17;;;7.77;;
19679;SDS011;9989;48.962;9.182;2022-07-29T06:53:32;11.63;;;7.23;;
19679;SDS011;9989;48.962;9.182;2022-07-29T06:55:59;11.27;;;7.33;;
19679;SDS011;9989;48.962;9.182;2022-07-29T06:58:25;9.63;;;6.60;;
19679;SDS011;9989;48.962;9.182;2022-07-29T07:00:52;17.10;;;6.80;;
19679;SDS011;9989;48.962;9.182;2022-07-29T07:03:18;10.17;;;6.93;;
19679;SDS011;9989;48.962;9.182;2022-07-29T07:05:44;10.43;;;6.93;;
19679;SDS011;9989;48.962;9.182;2022-07-29T07:08:11;10.73;;;6.50;;
19679;SDS011;9989;48.962;9.182;2022-07-29T07:10:37;11.20;;;6.87;;
19679;SDS011;9989;48.962;9.182;2022-07-29T07:13:04;11.73;;;6.80;;
19679;SDS011;9989;48.962;9.182;2022-07-29T07:15:30;9.70;;;6.77;;
19679;SDS011;9989;48.962;9.182;2022-07-29T07:17:55;9.80;;;6.17;;
19679;SDS011;9989;48.962;9.182;2022-07-29T07:20:22;11.47;;;7.07;;
19679;SDS011;9989;48.962;9.182;2022-07-29T07:22:49;9.23;;;6.20;;
19679;SDS011;9989;48.962;9.182;2022-07-29T07:25:14;11.70;;;6.50;;
19679;SDS011;9989;48.962;9.182;2022-07-29T07:27:40;9.80;;;6.27;;
19679;SDS011;9989;48.962;9.182;2022-07-29T07:30:06;10.20;;;6.60;;
19679;SDS011;9989;48.962;9.182;2022-07-29T07:32:32;10.30;;;6.60;;
19679;SDS011;9989;48.962;9.182;2022-07-29T07:34:58;11.90;;;5.83;;
19679;SDS011;9989;48.962;9.182;2022-07-29T07:37:24;10.20;;;6.93;;
19679;SDS011;9989;48.962;9.182;2022-07-29T07:39:51;9.77;;;5.90;;
19679;SDS011;9989;48.962;9.182;2022-07-29T07:42:17;10.33;;;6.03;;
19679;SDS011;9989;48.962;9.182;2022-07-29T07:44:43;14.93;;;6.13;;
19679;SDS011;9989;48.962;9.182;2022-07-29T07:47:10;9.20;;;6.70;;
19679;SDS011;9989;48.962;9.182;2022-07-29T07:49:37;11.13;;;6.30;;
19679;SDS011;9989;48.962;9.182;2022-07-29T07:52:03;10.63;;;6.90;;
19679;SDS011;9989;48.962;9.182;2022-07-29T07:54:29;9.23;;;5.97;;
19679;SDS011;9989;48.962;9.182;2022-07-29T07:56:54;10.37;;;6.80;;
19679;SDS011;9989;48.962;9.182;2022-07-29T07:59:20;11.73;;;7.20;;
19679;SDS011;9989;48.962;9.182;2022-07-29T08:01:45;9.73;;;6.47;;
19679;SDS011;9989;48.962;9.182;2022-07-29T08:04:11;14.23;;;6.70;;
19679;SDS011;9989;48.962;9.182;2022-07-29T08:06:36;10.60;;;6.10;;
19679;SDS011;9989;48.962;9.182;2022-07-29T08:09:03;10.10;;;5.73;;
19679;SDS011;9989;48.962;9.182;2022-07-29T08:11:29;8.60;;;5.80;;
19679;SDS011;9989;48.962;9.182;2022-07-29T08:13:55;9.43;;;6.57;;
19679;SDS011;9989;48.962;9.182;2022-07-29T08:16:21;11.23;;;6.97;;
19679;SDS011;9989;48.962;9.182;2022-07-29T08:18:46;9.80;;;6.30;;
19679;SDS011;9989;48.962;9.182;2022-07-29T08:21:13;9.67;;;6.27;;
19679;SDS011;9989;48.962;9.182;2022-07-29T08:23:40;8.83;;;5.27;;
19679;SDS011;9989;48.962;9.182;2022-07-29T08:26:11;10.30;;;6.63;;
19679;SDS011;9989;48.962;9.182;2022-07-29T08:28:39;9.33;;;6.43;;
19679;SDS011;9989;48.962;9.182;2022-07-29T08:31:06;10.63;;;6.40;;
19679;SDS011;9989;48.962;9.182;2022-07-29T08:33:32;9.80;;;6.03;;
19679;SDS011;9989;48.962;9.182;2022-07-29T08:35:58;11.17;;;5.87;;
19679;SDS011;9989;48.962;9.182;2022-07-29T08:38:24;14.50;;;6.70;;
19679;SDS011;9989;48.962;9.182;2022-07-29T08:40:51;11.07;;;7.23;;
19679;SDS011;9989;48.962;9.182;2022-07-29T08:43:17;12.20;;;6.97;;
19679;SDS011;9989;48.962;9.182;2022-07-29T08:45:49;11.30;;;6.50;;
19679;SDS011;9989;48.962;9.182;2022-07-29T08:48:16;10.30;;;5.80;;
19679;SDS011;9989;48.962;9.182;2022-07-29T08:50:44;10.37;;;6.40;;
19679;SDS011;9989;48.962;9.182;2022-07-29T08:53:11;13.13;;;8.13;;
19679;SDS011;9989;48.962;9.182;2022-07-29T08:55:45;11.07;;;6.63;;
19679;SDS011;9989;48.962;9.182;2022-07-29T08:58:13;9.13;;;6.43;;
19679;SDS011;9989;48.962;9.182;2022-07-29T09:00:46;10.57;;;6.70;;
19679;SDS011;9989;48.962;9.182;2022-07-29T09:03:18;9.77;;;6.50;;
19679;SDS011;9989;48.962;9.182;2022-07-29T09:05:45;10.63;;;7.47;;
19679;SDS011;9989;48.962;9.182;2022-07-29T09:08:12;9.47;;;6.63;;
19679;SDS011;9989;48.962;9.182;2022-07-29T09:10:39;12.10;;;7.77;;
19679;SDS011;9989;48.962;9.182;2022-07-29T09:13:05;11.13;;;7.33;;
19679;SDS011;9989;48.962;9.182;2022-07-29T09:15:31;11.93;;;7.70;;
19679;SDS011;9989;48.962;9.182;2022-07-29T09:17:56;9.90;;;6.40;;
19679;SDS011;9989;48.962;9.182;2022-07-29T09:20:23;10.80;;;7.13;;
19679;SDS011;9989;48.962;9.182;2022-07-29T09:22:50;11.47;;;6.77;;
19679;SDS011;9989;48.962;9.182;2022-07-29T09:25:34;10.30;;;6.83;;
19679;SDS011;9989;48.962;9.182;2022-07-29T09:28:11;9.43;;;6.10;;
19679;SDS011;9989;48.962;9.182;2022-07-29T09:33:20;12.10;;;7.60;;
19679;SDS011;9989;48.962;9.182;2022-07-29T09:35:57;12.60;;;8.17;;
19679;SDS011;9989;48.962;9.182;2022-07-29T09:38:30;10.60;;;8.07;;
19679;SDS011;9989;48.962;9.182;2022-07-29T09:40:57;12.10;;;7.00;;
19679;SDS011;9989;48.962;9.182;2022-07-29T09:43:24;11.47;;;6.87;;
19679;SDS011;9989;48.962;9.182;2022-07-29T09:45:49;9.17;;;6.87;;
19679;SDS011;9989;48.962;9.182;2022-07-29T09:48:24;9.60;;;6.43;;
19679;SDS011;9989;48.962;9.182;2022-07-29T09:50:50;9.63;;;6.97;;
19679;SDS011;9989;48.962;9.182;2022-07-29T09:55:58;11.47;;;6.87;;
19679;SDS011;9989;48.962;9.182;2022-07-29T09:58:23;10.57;;;7.23;;
19679;SDS011;9989;48.962;9.182;2022-07-29T10:00:50;10.07;;;7.30;;
19679;SDS011;9989;48.962;9.182;2022-07-29T10:03:17;10.17;;;6.70;;
19679;SDS011;9989;48.962;9.182;2022-07-29T10:05:43;10.90;;;7.07;;
19679;SDS011;9989;48.962;9.182;2022-07-29T10:08:10;9.97;;;7.23;;
19679;SDS011;9989;48.962;9.182;2022-07-29T10:10:38;12.17;;;6.67;;
19679;SDS011;9989;48.962;9.182;2022-07-29T10:13:06;9.83;;;6.80;;
19679;SDS011;9989;48.962;9.182;2022-07-29T10:15:34;10.63;;;6.87;;
19679;SDS011;9989;48.962;9.182;2022-07-29T10:18:03;11.13;;;7.80;;
19679;SDS011;9989;48.962;9.182;2022-07-29T10:20:29;10.67;;;7.53;;
19679;SDS011;9989;48.962;9.182;2022-07-29T10:22:55;12.93;;;7.40;;
19679;SDS011;9989;48.962;9.182;2022-07-29T10:25:22;11.00;;;7.20;;
19679;SDS011;9989;48.962;9.182;2022-07-29T10:27:49;10.40;;;7.17;;
19679;SDS011;9989;48.962;9.182;2022-07-29T10:30:18;9.77;;;6.93;;
19679;SDS011;9989;48.962;9.182;2022-07-29T10:41:03;11.53;;;7.27;;
19679;SDS011;9989;48.962;9.182;2022-07-29T10:43:55;10.80;;;7.40;;
19679;SDS011;9989;48.962;9.182;2022-07-29T10:46:39;10.93;;;7.53;;
19679;SDS011;9989;48.962;9.182;2022-07-29T10:49:24;11.07;;;7.00;;
19679;SDS011;9989;48.962;9.182;2022-07-29T10:54:17;10.47;;;7.30;;
19679;SDS011;9989;48.962;9.182;2022-07-29T10:56:44;12.50;;;6.87;;
19679;SDS011;9989;48.962;9.182;2022-07-29T11:01:45;9.80;;;6.50;;
19679;SDS011;9989;48.962;9.182;2022-07-29T11:04:11;10.73;;;7.43;;
19679;SDS011;9989;48.962;9.182;2022-07-29T11:09:30;10.30;;;6.60;;
19679;SDS011;9989;48.962;9.182;2022-07-29T11:11:56;10.63;;;6.07;;
19679;SDS011;9989;48.962;9.182;2022-07-29T11:17:22;8.87;;;6.07;;
19679;SDS011;9989;48.962;9.182;2022-07-29T11:19:48;9.63;;;6.70;;
19679;SDS011;9989;48.962;9.182;2022-07-29T11:22:32;8.93;;;6.30;;
19679;SDS011;9989;48.962;9.182;2022-07-29T11:25:14;10.47;;;6.30;;
19679;SDS011;9989;48.962;9.182;2022-07-29T11:27:41;10.40;;;6.60;;
19679;SDS011;9989;48.962;9.182;2022-07-29T11:30:07;15.30;;;7.43;;
19679;SDS011;9989;48.962;9.182;2022-07-29T11:32:43;10.50;;;6.90;;
19679;SDS011;9989;48.962;9.182;2022-07-29T11:35:17;9.93;;;6.53;;
19679;SDS011;9989;48.962;9.182;2022-07-29T11:37:46;12.53;;;6.63;;
19679;SDS011;9989;48.962;9.182;2022-07-29T11:40:32;10.40;;;7.00;;
19679;SDS011;9989;48.962;9.182;2022-07-29T11:42:58;9.37;;;6.60;;
19679;SDS011;9989;48.962;9.182;2022-07-29T11:45:24;11.07;;;6.30;;
19679;SDS011;9989;48.962;9.182;2022-07-29T11:47:55;9.83;;;6.30;;
19679;SDS011;9989;48.962;9.182;2022-07-29T11:50:30;10.37;;;6.43;;
19679;SDS011;9989;48.962;9.182;2022-07-29T11:53:01;10.83;;;6.50;;
19679;SDS011;9989;48.962;9.182;2022-07-29T11:55:28;9.20;;;6.00;;
19679;SDS011;9989;48.962;9.182;2022-07-29T11:57:57;10.50;;;6.20;;
19679;SDS011;9989;48.962;9.182;2022-07-29T12:00:31;9.70;;;6.00;;
19679;SDS011;9989;48.962;9.182;2022-07-29T12:02:59;10.17;;;6.10;;
19679;SDS011;9989;48.962;9.182;2022-07-29T12:05:33;11.50;;;6.10;;
19679;SDS011;9989;48.962;9.182;2022-07-29T12:08:06;8.97;;;5.97;;
19679;SDS011;9989;48.962;9.182;2022-07-29T12:10:34;11.37;;;5.90;;
19679;SDS011;9989;48.962;9.182;2022-07-29T12:12:59;9.43;;;5.77;;
19679;SDS011;9989;48.962;9.182;2022-07-29T12:15:25;10.50;;;7.20;;
19679;SDS011;9989;48.962;9.182;2022-07-29T12:17:51;11.20;;;6.60;;
19679;SDS011;9989;48.962;9.182;2022-07-29T12:20:24;10.53;;;6.03;;
19679;SDS011;9989;48.962;9.182;2022-07-29T12:22:52;14.07;;;6.50;;
19679;SDS011;9989;48.962;9.182;2022-07-29T12:25:23;13.10;;;8.60;;
19679;SDS011;9989;48.962;9.182;2022-07-29T12:27:57;11.53;;;7.60;;
19679;SDS011;9989;48.962;9.182;2022-07-29T12:31:00;12.93;;;8.30;;
19679;SDS011;9989;48.962;9.182;2022-07-29T12:33:20;12.77;;;7.83;;
19679;SDS011;9989;48.962;9.182;2022-07-29T12:35:57;10.40;;;7.50;;
19679;SDS011;9989;48.962;9.182;2022-07-29T12:38:24;12.70;;;7.87;;
19679;SDS011;9989;48.962;9.182;2022-07-29T12:40:51;19.70;;;9.70;;
19679;SDS011;9989;48.962;9.182;2022-07-29T12:43:19;17.50;;;9.43;;
19679;SDS011;9989;48.962;9.182;2022-07-29T12:45:47;17.47;;;9.13;;
19679;SDS011;9989;48.962;9.182;2022-07-29T12:48:22;13.87;;;8.27;;
19679;SDS011;9989;48.962;9.182;2022-07-29T12:50:59;14.70;;;8.03;;
19679;SDS011;9989;48.962;9.182;2022-07-29T12:53:26;13.17;;;7.83;;
19679;SDS011;9989;48.962;9.182;2022-07-29T12:55:53;13.53;;;8.10;;
19679;SDS011;9989;48.962;9.182;2022-07-29T12:58:34;11.50;;;7.57;;
19679;SDS011;9989;48.962;9.182;2022-07-29T13:01:05;11.27;;;7.70;;
19679;SDS011;9989;48.962;9.182;2022-07-29T13:03:55;15.53;;;7.83;;
19679;SDS011;9989;48.962;9.182;2022-07-29T13:09:10;11.00;;;7.63;;
19679;SDS011;9989;48.962;9.182;2022-07-29T13:14:29;14.57;;;8.90;;
19679;SDS011;9989;48.962;9.182;2022-07-29T13:17:00;10.47;;;8.10;;
19679;SDS011;9989;48.962;9.182;2022-07-29T13:19:36;12.23;;;8.07;;
19679;SDS011;9989;48.962;9.182;2022-07-29T13:22:11;11.20;;;7.33;;
19679;SDS011;9989;48.962;9.182;2022-07-29T13:27:17;12.93;;;8.47;;
19679;SDS011;9989;48.962;9.182;2022-07-29T13:29:44;11.20;;;7.50;;
19679;SDS011;9989;48.962;9.182;2022-07-29T13:32:10;13.57;;;7.70;;
19679;SDS011;9989;48.962;9.182;2022-07-29T13:34:37;11.30;;;7.47;;
19679;SDS011;9989;48.962;9.182;2022-07-29T13:37:02;12.17;;;7.50;;
19679;SDS011;9989;48.962;9.182;2022-07-29T13:39:28;11.50;;;7.03;;
19679;SDS011;9989;48.962;9.182;2022-07-29T13:41:53;12.03;;;6.97;;
19679;SDS011;9989;48.962;9.182;2022-07-29T13:44:19;9.60;;;6.57;;
19679;SDS011;9989;48.962;9.182;2022-07-29T13:46:45;10.97;;;6.40;;
19679;SDS011;9989;48.962;9.182;2022-07-29T13:49:10;9.27;;;6.30;;
19679;SDS011;9989;48.962;9.182;2022-07-29T13:51:36;10.20;;;6.17;;
19679;SDS011;9989;48.962;9.182;2022-07-29T13:54:02;11.53;;;6.37;;
19679;SDS011;9989;48.962;9.182;2022-07-29T13:56:28;10.80;;;6.43;;
19679;SDS011;9989;48.962;9.182;2022-07-29T13:58:54;10.67;;;6.80;;
19679;SDS011;9989;48.962;9.182;2022-07-29T14:01:19;13.70;;;5.77;;
19679;SDS011;9989;48.962;9.182;2022-07-29T14:03:45;9.30;;;6.27;;
19679;SDS011;9989;48.962;9.182;2022-07-29T14:06:10;9.50;;;5.77;;
19679;SDS011;9989;48.962;9.182;2022-07-29T14:08:36;9.83;;;6.17;;
19679;SDS011;9989;48.962;9.182;2022-07-29T14:11:02;9.40;;;6.50;;
19679;SDS011;9989;48.962;9.182;2022-07-29T14:13:28;9.50;;;5.93;;
19679;SDS011;9989;48.962;9.182;2022-07-29T14:15:53;10.87;;;5.73;;
19679;SDS011;9989;48.962;9.182;2022-07-29T14:18:19;12.23;;;5.33;;
19679;SDS011;9989;48.962;9.182;2022-07-29T14:20:44;10.47;;;6.13;;
19679;SDS011;9989;48.962;9.182;2022-07-29T14:23:10;10.60;;;6.10;;
19679;SDS011;9989;48.962;9.182;2022-07-29T14:25:36;10.70;;;6.40;;
19679;SDS011;9989;48.962;9.182;2022-07-29T14:28:01;12.57;;;5.40;;
19679;SDS011;9989;48.962;9.182;2022-07-29T14:30:27;8.73;;;5.77;;
19679;SDS011;9989;48.962;9.182;2022-07-29T14:32:52;9.43;;;6.13;;
19679;SDS011;9989;48.962;9.182;2022-07-29T14:35:18;10.00;;;5.40;;
19679;SDS011;9989;48.962;9.182;2022-07-29T14:37:44;9.47;;;5.97;;
19679;SDS011;9989;48.962;9.182;2022-07-29T14:40:10;7.57;;;4.70;;
19679;SDS011;9989;48.962;9.182;2022-07-29T14:42:36;12.50;;;5.70;;
19679;SDS011;9989;48.962;9.182;2022-07-29T14:45:02;9.93;;;5.37;;
19679;SDS011;9989;48.962;9.182;2022-07-29T14:47:32;11.57;;;5.17;;
19679;SDS011;9989;48.962;9.182;2022-07-29T14:49:58;8.80;;;5.43;;
19679;SDS011;9989;48.962;9.182;2022-07-29T14:52:24;11.07;;;5.67;;
19679;SDS011;9989;48.962;9.182;2022-07-29T14:54:49;9.07;;;5.17;;
19679;SDS011;9989;48.962;9.182;2022-07-29T14:57:15;8.13;;;4.37;;
19679;SDS011;9989;48.962;9.182;2022-07-29T14:59:41;9.37;;;5.50;;
19679;SDS011;9989;48.962;9.182;2022-07-29T15:02:07;9.57;;;4.23;;
19679;SDS011;9989;48.962;9.182;2022-07-29T15:04:33;8.93;;;4.47;;
19679;SDS011;9989;48.962;9.182;2022-07-29T15:06:59;9.60;;;4.80;;
19679;SDS011;9989;48.962;9.182;2022-07-29T15:09:25;7.63;;;3.80;;
19679;SDS011;9989;48.962;9.182;2022-07-29T15:11:50;10.30;;;4.10;;
19679;SDS011;9989;48.962;9.182;2022-07-29T15:14:16;11.03;;;4.30;;
19679;SDS011;9989;48.962;9.182;2022-07-29T15:16:41;6.80;;;4.00;;
19679;SDS011;9989;48.962;9.182;2022-07-29T15:19:08;9.07;;;4.30;;
19679;SDS011;9989;48.962;9.182;2022-07-29T15:21:33;9.73;;;3.70;;
19679;SDS011;9989;48.962;9.182;2022-07-29T15:23:59;7.43;;;3.57;;
19679;SDS011;9989;48.962;9.182;2022-07-29T15:26:25;8.23;;;3.83;;
19679;SDS011;9989;48.962;9.182;2022-07-29T15:28:50;7.27;;;3.77;;
19679;SDS011;9989;48.962;9.182;2022-07-29T15:31:16;8.53;;;3.87;;
19679;SDS011;9989;48.962;9.182;2022-07-29T15:33:43;7.07;;;3.37;;
19679;SDS011;9989;48.962;9.182;2022-07-29T15:36:09;12.37;;;3.70;;
19679;SDS011;9989;48.962;9.182;2022-07-29T15:38:37;8.93;;;3.87;;
19679;SDS011;9989;48.962;9.182;2022-07-29T15:41:03;8.57;;;3.50;;